sensor_id;sensor_type;location;lat;lon;timestamp;pressure;altitude;pressure_sealevel;temperature;humidity
74675;BME280;63200;48.810;12.352;2023-02-22T00:00:16;97515.59;;;0.66;76.80
74675;BME280;63200;48.810;12.352;2023-02-22T00:02:55;97524.06;;;0.63;77.61
74675;BME280;63200;48.810;12.352;2023-02-22T00:05:26;97493.75;;;0.51;78.29
74675;BME280;63200;48.810;12.352;2023-02-22T00:07:52;97485.75;;;0.51;78.68
74675;BME280;63200;48.810;12.352;2023-02-22T00:10:21;97515.91;;;0.76;77.84
74675;BME280;63200;48.810;12.352;2023-02-22T00:12:49;97515.91;;;0.76;77.95
74675;BME280;63200;48.810;12.352;2023-02-22T00:15:20;97517.31;;;0.79;77.56
74675;BME280;63200;48.810;12.352;2023-02-22T00:17:46;97486.03;;;0.61;77.74
74675;BME280;63200;48.810;12.352;2023-02-22T00:20:13;97506.41;;;0.80;77.76
74675;BME280;63200;48.810;12.352;2023-02-22T00:22:43;97516.06;;;0.81;77.71
74675;BME280;63200;48.810;12.352;2023-02-22T00:25:12;97487.38;;;0.70;77.51
74675;BME280;63200;48.810;12.352;2023-02-22T00:27:37;97509.25;;;0.86;77.40
74675;BME280;63200;48.810;12.352;2023-02-22T00:30:04;97511.41;;;0.77;76.79
74675;BME280;63200;48.810;12.352;2023-02-22T00:32:30;97515.75;;;0.71;76.86
74675;BME280;63200;48.810;12.352;2023-02-22T00:34:56;97513.53;;;0.68;77.39
74675;BME280;63200;48.810;12.352;2023-02-22T00:37:22;97516.66;;;0.65;77.56
74675;BME280;63200;48.810;12.352;2023-02-22T00:39:48;97513.38;;;0.63;77.49
74675;BME280;63200;48.810;12.352;2023-02-22T00:42:14;97501.31;;;0.54;77.53
74675;BME280;63200;48.810;12.352;2023-02-22T00:44:40;97498.88;;;0.52;77.76
74675;BME280;63200;48.810;12.352;2023-02-22T00:47:05;97460.50;;;0.21;77.42
74675;BME280;63200;48.810;12.352;2023-02-22T00:49:30;97504.66;;;0.49;77.83
74675;BME280;63200;48.810;12.352;2023-02-22T00:51:56;97497.31;;;0.44;77.51
74675;BME280;63200;48.810;12.352;2023-02-22T00:54:21;97470.72;;;0.31;77.82
74675;BME280;63200;48.810;12.352;2023-02-22T00:56:46;97492.34;;;0.48;77.74
74675;BME280;63200;48.810;12.352;2023-02-22T00:59:15;97465.59;;;0.29;77.84
74675;BME280;63200;48.810;12.352;2023-02-22T01:01:40;97493.75;;;0.51;78.08
74675;BME280;63200;48.810;12.352;2023-02-22T01:04:07;97494.78;;;0.49;77.42
74675;BME280;63200;48.810;12.352;2023-02-22T01:06:33;97487.81;;;0.48;77.47
74675;BME280;63200;48.810;12.352;2023-02-22T01:08:58;97486.63;;;0.44;77.52
74675;BME280;63200;48.810;12.352;2023-02-22T01:11:24;97494.69;;;0.38;77.19
74675;BME280;63200;48.810;12.352;2023-02-22T01:13:49;97488.63;;;0.24;77.40
74675;BME280;63200;48.810;12.352;2023-02-22T01:16:18;97453.91;;;-0.02;77.39
74675;BME280;63200;48.810;12.352;2023-02-22T01:18:44;97486.84;;;0.18;77.69
74675;BME280;63200;48.810;12.352;2023-02-22T01:21:09;97486.69;;;0.12;77.38
74675;BME280;63200;48.810;12.352;2023-02-22T01:23:34;97477.88;;;0.05;77.16
74675;BME280;63200;48.810;12.352;2023-02-22T01:26:00;97483.28;;;-0.02;77.15
74675;BME280;63200;48.810;12.352;2023-02-22T01:28:25;97458.59;;;-0.22;77.05
74675;BME280;63200;48.810;12.352;2023-02-22T01:30:51;97481.25;;;-0.06;77.01
74675;BME280;63200;48.810;12.352;2023-02-22T01:33:16;97472.41;;;0.00;77.02
74675;BME280;63200;48.810;12.352;2023-02-22T01:35:42;97471.34;;;0.01;76.87
74675;BME280;63200;48.810;12.352;2023-02-22T01:38:09;97472.19;;;0.02;77.15
74675;BME280;63200;48.810;12.352;2023-02-22T01:40:40;97471.34;;;0.01;76.81
74675;BME280;63200;48.810;12.352;2023-02-22T01:43:29;97473.22;;;0.01;76.93
74675;BME280;63200;48.810;12.352;2023-02-22T01:45:59;97471.56;;;-0.01;76.74
74675;BME280;63200;48.810;12.352;2023-02-22T01:48:43;97430.09;;;-0.28;76.98
74675;BME280;63200;48.810;12.352;2023-02-22T01:51:12;97475.09;;;-0.07;77.43
74675;BME280;63200;48.810;12.352;2023-02-22T01:54:03;97468.72;;;-0.06;77.22
74675;BME280;63200;48.810;12.352;2023-02-22T01:56:33;97461.97;;;-0.08;76.94
74675;BME280;63200;48.810;12.352;2023-02-22T01:59:03;97461.75;;;-0.07;77.11
74675;BME280;63200;48.810;12.352;2023-02-22T02:01:31;97430.72;;;-0.26;77.14
74675;BME280;63200;48.810;12.352;2023-02-22T02:03:59;97451.06;;;-0.07;77.67
74675;BME280;63200;48.810;12.352;2023-02-22T02:06:27;97458.31;;;-0.14;77.33
74675;BME280;63200;48.810;12.352;2023-02-22T02:09:09;97455.09;;;-0.23;77.24
74675;BME280;63200;48.810;12.352;2023-02-22T02:11:38;97451.56;;;-0.17;77.62
74675;BME280;63200;48.810;12.352;2023-02-22T02:14:08;97425.19;;;-0.31;77.20
74675;BME280;63200;48.810;12.352;2023-02-22T02:16:44;97446.41;;;-0.11;77.30
74675;BME280;63200;48.810;12.352;2023-02-22T02:24:59;97443.38;;;-0.22;77.39
74675;BME280;63200;48.810;12.352;2023-02-22T02:30:47;97440.38;;;-0.32;77.15
74675;BME280;63200;48.810;12.352;2023-02-22T02:33:31;97439.16;;;-0.36;77.22
74675;BME280;63200;48.810;12.352;2023-02-22T02:39:12;97433.34;;;-0.52;76.97
74675;BME280;63200;48.810;12.352;2023-02-22T02:41:44;97398.75;;;-0.72;77.04
74675;BME280;63200;48.810;12.352;2023-02-22T02:46:49;97428.66;;;-0.63;76.76
74675;BME280;63200;48.810;12.352;2023-02-22T02:49:20;97421.50;;;-0.69;77.03
74675;BME280;63200;48.810;12.352;2023-02-22T02:51:51;97421.28;;;-0.68;77.03
74675;BME280;63200;48.810;12.352;2023-02-22T02:54:18;97427.88;;;-0.63;77.16
74675;BME280;63200;48.810;12.352;2023-02-22T02:56:45;97414.91;;;-0.60;77.22
74675;BME280;63200;48.810;12.352;2023-02-22T02:59:28;97414.91;;;-0.60;76.94
74675;BME280;63200;48.810;12.352;2023-02-22T03:04:56;97415.78;;;-0.66;77.42
74675;BME280;63200;48.810;12.352;2023-02-22T03:07:44;97415.97;;;-0.61;77.48
74675;BME280;63200;48.810;12.352;2023-02-22T03:12:48;97417.53;;;-0.53;77.21
74675;BME280;63200;48.810;12.352;2023-02-22T03:15:18;97416.06;;;-0.49;77.43
74675;BME280;63200;48.810;12.352;2023-02-22T03:20:21;97413.97;;;-0.40;77.39
74675;BME280;63200;48.810;12.352;2023-02-22T03:23:00;97378.34;;;-0.53;77.61
74675;BME280;63200;48.810;12.352;2023-02-22T03:25:38;97408.31;;;-0.25;77.40
74675;BME280;63200;48.810;12.352;2023-02-22T03:28:08;97378.84;;;-0.37;77.44
74675;BME280;63200;48.810;12.352;2023-02-22T03:30:47;97401.25;;;-0.13;77.37
74675;BME280;63200;48.810;12.352;2023-02-22T03:33:24;97394.66;;;-0.10;77.33
74675;BME280;63200;48.810;12.352;2023-02-22T03:36:01;97354.66;;;-0.36;77.03
74675;BME280;63200;48.810;12.352;2023-02-22T03:38:28;97385.88;;;-0.18;77.75
74675;BME280;63200;48.810;12.352;2023-02-22T03:40:59;97367.94;;;-0.29;77.52
74675;BME280;63200;48.810;12.352;2023-02-22T03:43:46;97399.13;;;-0.04;77.58
74675;BME280;63200;48.810;12.352;2023-02-22T03:46:13;97395.00;;;0.00;77.93
74675;BME280;63200;48.810;12.352;2023-02-22T03:51:12;97399.06;;;0.03;78.79
74675;BME280;63200;48.810;12.352;2023-02-22T03:53:41;97395.81;;;0.01;79.04
74675;BME280;63200;48.810;12.352;2023-02-22T03:56:11;97402.56;;;0.03;78.99
74675;BME280;63200;48.810;12.352;2023-02-22T03:58:39;97400.91;;;0.02;79.17
74675;BME280;63200;48.810;12.352;2023-02-22T04:01:08;97401.38;;;-0.01;79.76
74675;BME280;63200;48.810;12.352;2023-02-22T04:03:34;97399.06;;;0.03;79.77
74675;BME280;63200;48.810;12.352;2023-02-22T04:05:59;97403.44;;;-0.03;79.97
74675;BME280;63200;48.810;12.352;2023-02-22T04:08:24;97403.75;;;-0.18;80.19
74675;BME280;63200;48.810;12.352;2023-02-22T04:10:49;97406.25;;;-0.23;80.22
74675;BME280;63200;48.810;12.352;2023-02-22T04:13:15;97412.41;;;-0.23;80.74
74675;BME280;63200;48.810;12.352;2023-02-22T04:15:40;97406.19;;;-0.17;80.81
74675;BME280;63200;48.810;12.352;2023-02-22T04:18:05;97399.63;;;-0.14;80.96
74675;BME280;63200;48.810;12.352;2023-02-22T04:20:31;97390.94;;;-0.09;81.19
74675;BME280;63200;48.810;12.352;2023-02-22T04:22:56;97398.91;;;-0.03;80.89
74675;BME280;63200;48.810;12.352;2023-02-22T04:25:22;97395.81;;;0.01;81.03
74675;BME280;63200;48.810;12.352;2023-02-22T04:27:48;97394.94;;;0.07;81.04
74675;BME280;63200;48.810;12.352;2023-02-22T04:30:17;97400.41;;;0.12;80.42
74675;BME280;63200;48.810;12.352;2023-02-22T04:32:43;97385.72;;;0.03;80.48
74675;BME280;63200;48.810;12.352;2023-02-22T04:35:08;97392.41;;;0.12;80.99
74675;BME280;63200;48.810;12.352;2023-02-22T04:37:34;97394.66;;;0.15;80.51
74675;BME280;63200;48.810;12.352;2023-02-22T04:40:03;97362.38;;;-0.02;80.35
74675;BME280;63200;48.810;12.352;2023-02-22T04:42:34;97392.38;;;0.19;80.59
74675;BME280;63200;48.810;12.352;2023-02-22T04:45:00;97346.03;;;-0.12;80.29
74675;BME280;63200;48.810;12.352;2023-02-22T04:47:25;97388.47;;;0.14;80.76
74675;BME280;63200;48.810;12.352;2023-02-22T04:49:50;97386.03;;;0.13;80.83
74675;BME280;63200;48.810;12.352;2023-02-22T04:52:16;97386.88;;;0.13;80.62
74675;BME280;63200;48.810;12.352;2023-02-22T04:54:41;97386.72;;;0.08;80.99
74675;BME280;63200;48.810;12.352;2023-02-22T04:57:06;97383.66;;;0.05;80.80
74675;BME280;63200;48.810;12.352;2023-02-22T04:59:32;97384.25;;;0.07;80.89
74675;BME280;63200;48.810;12.352;2023-02-22T05:01:57;97385.34;;;-0.01;81.20
74675;BME280;63200;48.810;12.352;2023-02-22T05:04:23;97393.78;;;-0.04;80.94
74675;BME280;63200;48.810;12.352;2023-02-22T05:06:48;97378.28;;;-0.14;81.20
74675;BME280;63200;48.810;12.352;2023-02-22T05:09:13;97381.81;;;-0.20;81.40
74675;BME280;63200;48.810;12.352;2023-02-22T05:11:39;97341.06;;;-0.59;81.45
74675;BME280;63200;48.810;12.352;2023-02-22T05:14:04;97374.75;;;-0.33;81.90
74675;BME280;63200;48.810;12.352;2023-02-22T05:16:29;97383.25;;;-0.49;82.07
74675;BME280;63200;48.810;12.352;2023-02-22T05:18:55;97377.91;;;-0.49;82.42
74675;BME280;63200;48.810;12.352;2023-02-22T05:21:20;97367.59;;;-0.39;82.33
74675;BME280;63200;48.810;12.352;2023-02-22T05:23:46;97374.50;;;-0.31;82.32
74675;BME280;63200;48.810;12.352;2023-02-22T05:26:11;97376.16;;;-0.30;82.38
74675;BME280;63200;48.810;12.352;2023-02-22T05:28:36;97371.19;;;-0.27;82.15
74675;BME280;63200;48.810;12.352;2023-02-22T05:31:02;97372.59;;;-0.24;82.24
74675;BME280;63200;48.810;12.352;2023-02-22T05:33:27;97372.59;;;-0.24;82.07
74675;BME280;63200;48.810;12.352;2023-02-22T05:35:52;97372.59;;;-0.24;81.92
74675;BME280;63200;48.810;12.352;2023-02-22T05:38:20;97369.28;;;-0.20;82.08
74675;BME280;63200;48.810;12.352;2023-02-22T05:40:45;97366.84;;;-0.21;81.79
74675;BME280;63200;48.810;12.352;2023-02-22T05:43:11;97360.50;;;-0.27;81.86
74675;BME280;63200;48.810;12.352;2023-02-22T05:45:36;97368.28;;;-0.25;81.75
74675;BME280;63200;48.810;12.352;2023-02-22T05:48:02;97373.22;;;-0.22;81.67
74675;BME280;63200;48.810;12.352;2023-02-22T05:50:27;97331.81;;;-0.57;81.64
74675;BME280;63200;48.810;12.352;2023-02-22T05:52:53;97372.66;;;-0.31;81.41
74675;BME280;63200;48.810;12.352;2023-02-22T05:55:21;97378.97;;;-0.25;81.60
74675;BME280;63200;48.810;12.352;2023-02-22T05:57:48;97369.88;;;-0.18;81.48
74675;BME280;63200;48.810;12.352;2023-02-22T06:00:28;97377.66;;;-0.16;81.32
74675;BME280;63200;48.810;12.352;2023-02-22T06:02:58;97381.22;;;-0.22;81.29
74675;BME280;63200;48.810;12.352;2023-02-22T06:05:24;97381.84;;;-0.27;81.23
74675;BME280;63200;48.810;12.352;2023-02-22T06:07:52;97380.22;;;-0.28;81.32
74675;BME280;63200;48.810;12.352;2023-02-22T06:10:18;97381.22;;;-0.22;81.40
74675;BME280;63200;48.810;12.352;2023-02-22T06:12:44;97375.88;;;-0.22;81.27
74675;BME280;63200;48.810;12.352;2023-02-22T06:15:09;97377.47;;;-0.14;81.17
74675;BME280;63200;48.810;12.352;2023-02-22T06:17:35;97377.25;;;-0.13;81.20
74675;BME280;63200;48.810;12.352;2023-02-22T06:20:00;97370.66;;;-0.10;81.19
74675;BME280;63200;48.810;12.352;2023-02-22T06:22:26;97375.53;;;-0.07;80.48
74675;BME280;63200;48.810;12.352;2023-02-22T06:24:51;97374.56;;;-0.13;79.51
74675;BME280;63200;48.810;12.352;2023-02-22T06:27:17;97383.22;;;-0.18;79.36
74675;BME280;63200;48.810;12.352;2023-02-22T06:29:46;97361.72;;;-0.23;79.50
74675;BME280;63200;48.810;12.352;2023-02-22T06:32:12;97354.31;;;-0.21;79.06
74675;BME280;63200;48.810;12.352;2023-02-22T06:34:37;97373.69;;;-0.07;79.24
74675;BME280;63200;48.810;12.352;2023-02-22T06:37:05;97358.19;;;-0.17;78.93
74675;BME280;63200;48.810;12.352;2023-02-22T06:39:30;97374.00;;;0.04;78.86
74675;BME280;63200;48.810;12.352;2023-02-22T06:41:56;97385.81;;;0.14;79.27
74675;BME280;63200;48.810;12.352;2023-02-22T06:44:21;97387.69;;;0.14;79.55
74675;BME280;63200;48.810;12.352;2023-02-22T06:46:48;97390.78;;;0.11;79.72
74675;BME280;63200;48.810;12.352;2023-02-22T06:49:18;97392.41;;;0.12;80.29
74675;BME280;63200;48.810;12.352;2023-02-22T06:51:44;97362.88;;;-0.12;80.27
74675;BME280;63200;48.810;12.352;2023-02-22T06:54:09;97397.09;;;0.16;80.36
74675;BME280;63200;48.810;12.352;2023-02-22T06:56:35;97395.13;;;0.05;80.67
74675;BME280;63200;48.810;12.352;2023-02-22T06:59:00;97393.25;;;0.12;80.89
74675;BME280;63200;48.810;12.352;2023-02-22T07:01:29;97400.00;;;0.15;81.05
74675;BME280;63200;48.810;12.352;2023-02-22T07:03:55;97356.97;;;0.05;81.26
74675;BME280;63200;48.810;12.352;2023-02-22T07:06:20;97394.31;;;0.48;81.36
74675;BME280;63200;48.810;12.352;2023-02-22T07:08:46;97399.16;;;0.58;80.60
74675;BME280;63200;48.810;12.352;2023-02-22T07:11:12;97400.69;;;0.66;80.59
74675;BME280;63200;48.810;12.352;2023-02-22T07:13:37;97385.06;;;0.51;80.12
74675;BME280;63200;48.810;12.352;2023-02-22T07:16:04;97391.88;;;0.65;80.15
74675;BME280;63200;48.810;12.352;2023-02-22T07:18:29;97391.72;;;0.79;80.01
74675;BME280;63200;48.810;12.352;2023-02-22T07:20:55;97396.13;;;0.73;79.97
74675;BME280;63200;48.810;12.352;2023-02-22T07:23:22;97381.34;;;0.71;80.02
74675;BME280;63200;48.810;12.352;2023-02-22T07:25:48;97407.38;;;0.94;79.46
74675;BME280;63200;48.810;12.352;2023-02-22T07:28:13;97400.47;;;1.05;79.74
74675;BME280;63200;48.810;12.352;2023-02-22T07:30:39;97400.72;;;1.15;79.72
74675;BME280;63200;48.810;12.352;2023-02-22T07:33:07;97405.28;;;1.14;79.31
74675;BME280;63200;48.810;12.352;2023-02-22T07:35:46;97396.72;;;1.24;78.44
74675;BME280;63200;48.810;12.352;2023-02-22T07:38:13;97403.59;;;1.32;78.79
74675;BME280;63200;48.810;12.352;2023-02-22T07:40:40;97348.22;;;1.21;78.10
74675;BME280;63200;48.810;12.352;2023-02-22T07:43:17;97400.81;;;1.69;77.58
74675;BME280;63200;48.810;12.352;2023-02-22T07:45:43;97398.16;;;1.81;77.41
74675;BME280;63200;48.810;12.352;2023-02-22T07:48:10;97408.31;;;1.91;77.56
74675;BME280;63200;48.810;12.352;2023-02-22T07:50:36;97410.66;;;1.99;77.21
74675;BME280;63200;48.810;12.352;2023-02-22T07:53:05;97403.91;;;1.96;76.85
74675;BME280;63200;48.810;12.352;2023-02-22T07:55:32;97409.84;;;2.10;76.04
74675;BME280;63200;48.810;12.352;2023-02-22T07:58:00;97406.84;;;2.19;76.38
74675;BME280;63200;48.810;12.352;2023-02-22T08:00:34;97405.78;;;2.31;76.25
74675;BME280;63200;48.810;12.352;2023-02-22T08:03:02;97407.75;;;2.60;75.83
74675;BME280;63200;48.810;12.352;2023-02-22T08:05:28;97397.94;;;2.77;75.25
74675;BME280;63200;48.810;12.352;2023-02-22T08:07:54;97338.19;;;2.65;75.42
74675;BME280;63200;48.810;12.352;2023-02-22T08:10:22;97355.88;;;2.78;74.33
74675;BME280;63200;48.810;12.352;2023-02-22T08:12:48;97362.91;;;2.96;74.09
74675;BME280;63200;48.810;12.352;2023-02-22T08:15:16;97384.78;;;3.16;74.46
74675;BME280;63200;48.810;12.352;2023-02-22T08:17:42;97391.34;;;3.38;72.71
74675;BME280;63200;48.810;12.352;2023-02-22T08:20:07;97379.22;;;3.35;72.88
74675;BME280;63200;48.810;12.352;2023-02-22T08:22:33;97378.88;;;3.31;72.84
74675;BME280;63200;48.810;12.352;2023-02-22T08:24:58;97379.41;;;3.16;74.61
74675;BME280;63200;48.810;12.352;2023-02-22T08:27:27;97377.69;;;3.39;74.40
74675;BME280;63200;48.810;12.352;2023-02-22T08:29:53;97376.09;;;3.26;75.56
74675;BME280;63200;48.810;12.352;2023-02-22T08:32:19;97372.50;;;3.49;75.37
74675;BME280;63200;48.810;12.352;2023-02-22T08:34:45;97371.06;;;3.59;74.75
74675;BME280;63200;48.810;12.352;2023-02-22T08:37:11;97370.34;;;3.34;76.29
74675;BME280;63200;48.810;12.352;2023-02-22T08:39:36;97375.84;;;3.57;76.13
74675;BME280;63200;48.810;12.352;2023-02-22T08:42:02;97337.06;;;3.64;76.07
74675;BME280;63200;48.810;12.352;2023-02-22T08:44:27;97374.41;;;4.00;75.73
74675;BME280;63200;48.810;12.352;2023-02-22T08:46:52;97368.88;;;4.24;76.01
74675;BME280;63200;48.810;12.352;2023-02-22T08:49:19;97361.13;;;4.27;75.34
74675;BME280;63200;48.810;12.352;2023-02-22T08:51:44;97320.50;;;4.24;75.60
74675;BME280;63200;48.810;12.352;2023-02-22T08:54:10;97364.34;;;4.86;75.39
74675;BME280;63200;48.810;12.352;2023-02-22T08:56:35;97365.00;;;4.98;74.01
74675;BME280;63200;48.810;12.352;2023-02-22T08:59:00;97362.38;;;5.25;74.31
74675;BME280;63200;48.810;12.352;2023-02-22T09:01:26;97352.28;;;5.70;73.29
74675;BME280;63200;48.810;12.352;2023-02-22T09:03:53;97358.84;;;6.12;72.65
74675;BME280;63200;48.810;12.352;2023-02-22T09:06:20;97365.72;;;6.30;71.16
74675;BME280;63200;48.810;12.352;2023-02-22T09:08:45;97361.81;;;6.53;70.73
74675;BME280;63200;48.810;12.352;2023-02-22T09:11:10;97362.31;;;6.98;70.21
74675;BME280;63200;48.810;12.352;2023-02-22T09:13:35;97361.91;;;7.37;69.90
74675;BME280;63200;48.810;12.352;2023-02-22T09:16:01;97347.88;;;7.76;68.36
74675;BME280;63200;48.810;12.352;2023-02-22T09:18:27;97346.84;;;7.93;68.38
74675;BME280;63200;48.810;12.352;2023-02-22T09:20:53;97348.69;;;7.97;67.04
74675;BME280;63200;48.810;12.352;2023-02-22T09:23:19;97321.94;;;7.60;67.76
74675;BME280;63200;48.810;12.352;2023-02-22T09:25:48;97344.88;;;7.47;68.61
74675;BME280;63200;48.810;12.352;2023-02-22T09:28:14;97339.78;;;7.56;69.77
74675;BME280;63200;48.810;12.352;2023-02-22T09:30:39;97347.91;;;7.66;69.05
74675;BME280;63200;48.810;12.352;2023-02-22T09:33:06;97341.97;;;7.74;69.44
74675;BME280;63200;48.810;12.352;2023-02-22T09:35:34;97343.03;;;7.99;68.78
74675;BME280;63200;48.810;12.352;2023-02-22T09:38:00;97338.16;;;7.96;68.97
74675;BME280;63200;48.810;12.352;2023-02-22T09:40:29;97340.88;;;8.01;68.89
74675;BME280;63200;48.810;12.352;2023-02-22T09:43:06;97339.75;;;8.38;69.01
74675;BME280;63200;48.810;12.352;2023-02-22T09:45:55;97327.78;;;8.70;67.15
74675;BME280;63200;48.810;12.352;2023-02-22T09:48:26;97332.66;;;8.73;68.06
74675;BME280;63200;48.810;12.352;2023-02-22T09:50:57;97327.53;;;9.27;66.91
74675;BME280;63200;48.810;12.352;2023-02-22T09:53:28;97321.66;;;9.59;66.02
74675;BME280;63200;48.810;12.352;2023-02-22T09:56:13;97308.47;;;9.82;65.45
74675;BME280;63200;48.810;12.352;2023-02-22T09:58:54;97325.00;;;10.15;64.68
74675;BME280;63200;48.810;12.352;2023-02-22T10:01:28;97320.34;;;10.50;64.24
74675;BME280;63200;48.810;12.352;2023-02-22T10:04:21;97314.69;;;10.71;63.95
74675;BME280;63200;48.810;12.352;2023-02-22T10:09:34;97312.38;;;11.64;61.73
74675;BME280;63200;48.810;12.352;2023-02-22T10:12:27;97309.81;;;11.87;60.89
74675;BME280;63200;48.810;12.352;2023-02-22T10:15:14;97304.81;;;12.13;59.90
74675;BME280;63200;48.810;12.352;2023-02-22T10:23:28;97298.41;;;12.51;59.46
74675;BME280;63200;48.810;12.352;2023-02-22T10:26:03;97293.00;;;12.04;60.63
74675;BME280;63200;48.810;12.352;2023-02-22T10:28:51;97292.13;;;12.37;60.34
74675;BME280;63200;48.810;12.352;2023-02-22T10:31:25;97260.19;;;12.56;58.99
74675;BME280;63200;48.810;12.352;2023-02-22T10:33:57;97279.84;;;12.67;59.56
74675;BME280;63200;48.810;12.352;2023-02-22T10:36:24;97283.47;;;12.90;59.10
74675;BME280;63200;48.810;12.352;2023-02-22T10:39:06;97280.94;;;12.94;59.46
74675;BME280;63200;48.810;12.352;2023-02-22T10:41:43;97268.13;;;13.45;57.98
74675;BME280;63200;48.810;12.352;2023-02-22T10:44:12;97270.09;;;13.16;57.74
74675;BME280;63200;48.810;12.352;2023-02-22T10:46:38;97240.91;;;13.99;56.25
74675;BME280;63200;48.810;12.352;2023-02-22T10:49:04;97276.19;;;15.16;54.51
74675;BME280;63200;48.810;12.352;2023-02-22T10:51:34;97265.59;;;15.58;48.75
74675;BME280;63200;48.810;12.352;2023-02-22T10:56:49;97233.41;;;15.03;50.94
74675;BME280;63200;48.810;12.352;2023-02-22T10:59:38;97251.59;;;15.07;50.09
74675;BME280;63200;48.810;12.352;2023-02-22T11:02:22;97254.94;;;15.04;51.23
74675;BME280;63200;48.810;12.352;2023-02-22T11:04:50;97249.00;;;14.93;49.41
74675;BME280;63200;48.810;12.352;2023-02-22T11:07:36;97249.91;;;14.80;51.48
74675;BME280;63200;48.810;12.352;2023-02-22T11:10:07;97235.75;;;14.69;49.63
74675;BME280;63200;48.810;12.352;2023-02-22T11:12:38;97238.22;;;14.97;50.62
74675;BME280;63200;48.810;12.352;2023-02-22T11:17:42;97204.25;;;15.77;48.51
74675;BME280;63200;48.810;12.352;2023-02-22T11:20:20;97222.09;;;16.01;46.69
74675;BME280;63200;48.810;12.352;2023-02-22T11:22:51;97214.09;;;15.87;48.04
74675;BME280;63200;48.810;12.352;2023-02-22T11:25:20;97190.47;;;15.47;48.55
74675;BME280;63200;48.810;12.352;2023-02-22T11:27:47;97206.25;;;15.41;48.92
74675;BME280;63200;48.810;12.352;2023-02-22T11:32:57;97196.59;;;15.35;49.63
74675;BME280;63200;48.810;12.352;2023-02-22T11:35:38;97193.66;;;14.70;50.71
74675;BME280;63200;48.810;12.352;2023-02-22T11:43:38;97188.50;;;14.69;50.38
74675;BME280;63200;48.810;12.352;2023-02-22T11:46:06;97183.72;;;14.83;51.05
74675;BME280;63200;48.810;12.352;2023-02-22T11:48:35;97183.53;;;14.79;51.12
74675;BME280;63200;48.810;12.352;2023-02-22T11:51:15;97175.59;;;14.52;52.09
74675;BME280;63200;48.810;12.352;2023-02-22T11:56:33;97172.03;;;14.42;51.79
74675;BME280;63200;48.810;12.352;2023-02-22T11:59:22;97178.50;;;14.15;52.33
74675;BME280;63200;48.810;12.352;2023-02-22T12:01:55;97167.94;;;13.82;53.05
74675;BME280;63200;48.810;12.352;2023-02-22T12:07:01;97164.41;;;14.22;53.26
74675;BME280;63200;48.810;12.352;2023-02-22T12:09:40;97160.00;;;14.43;51.45
74675;BME280;63200;48.810;12.352;2023-02-22T12:17:39;97158.63;;;14.81;50.97
74675;BME280;63200;48.810;12.352;2023-02-22T12:20:38;97155.59;;;15.18;49.91
74675;BME280;63200;48.810;12.352;2023-02-22T12:26:19;97154.06;;;15.64;48.67
74675;BME280;63200;48.810;12.352;2023-02-22T12:28:55;97139.06;;;15.88;50.38
74675;BME280;63200;48.810;12.352;2023-02-22T12:34:22;97150.41;;;16.07;48.56
74675;BME280;63200;48.810;12.352;2023-02-22T12:36:54;97149.69;;;16.28;47.35
74675;BME280;63200;48.810;12.352;2023-02-22T12:45:30;97139.44;;;16.46;47.74
74675;BME280;63200;48.810;12.352;2023-02-22T12:50:53;97125.81;;;16.58;46.13
74675;BME280;63200;48.810;12.352;2023-02-22T12:53:25;97132.75;;;16.56;47.65
74675;BME280;63200;48.810;12.352;2023-02-22T12:56:24;97129.09;;;16.73;46.81
74675;BME280;63200;48.810;12.352;2023-02-22T13:02:08;97111.19;;;16.54;46.55
74675;BME280;63200;48.810;12.352;2023-02-22T13:04:36;97038.78;;;16.34;46.35
74675;BME280;63200;48.810;12.352;2023-02-22T13:07:32;97119.81;;;16.65;47.06
74675;BME280;63200;48.810;12.352;2023-02-22T13:13:00;97120.22;;;16.25;47.53
74675;BME280;63200;48.810;12.352;2023-02-22T13:16:07;97103.09;;;15.98;47.67
74675;BME280;63200;48.810;12.352;2023-02-22T13:21:22;97075.06;;;15.62;48.42
74675;BME280;63200;48.810;12.352;2023-02-22T13:23:57;97108.13;;;15.96;48.01
74675;BME280;63200;48.810;12.352;2023-02-22T13:29:06;97104.00;;;16.11;47.60
74675;BME280;63200;48.810;12.352;2023-02-22T13:31:41;97102.97;;;16.24;47.60
74675;BME280;63200;48.810;12.352;2023-02-22T13:37:47;97097.91;;;16.05;46.93
74675;BME280;63200;48.810;12.352;2023-02-22T13:46:16;97091.56;;;15.19;49.09
74675;BME280;63200;48.810;12.352;2023-02-22T13:51:51;97056.22;;;14.43;51.15
74675;BME280;63200;48.810;12.352;2023-02-22T13:54:24;97079.84;;;15.01;50.59
74675;BME280;63200;48.810;12.352;2023-02-22T13:56:53;97083.47;;;15.48;49.53
74675;BME280;63200;48.810;12.352;2023-02-22T13:59:23;97069.81;;;15.87;48.43
74675;BME280;63200;48.810;12.352;2023-02-22T14:01:49;97083.59;;;16.29;47.64
74675;BME280;63200;48.810;12.352;2023-02-22T14:04:32;97066.78;;;16.10;47.41
74675;BME280;63200;48.810;12.352;2023-02-22T14:07:03;97080.06;;;16.29;47.21
74675;BME280;63200;48.810;12.352;2023-02-22T14:17:36;97041.72;;;15.69;48.57
74675;BME280;63200;48.810;12.352;2023-02-22T14:20:25;97074.03;;;15.76;48.22
74675;BME280;63200;48.810;12.352;2023-02-22T14:22:55;97072.56;;;15.87;48.35
74675;BME280;63200;48.810;12.352;2023-02-22T14:25:38;97049.63;;;15.62;49.32
74675;BME280;63200;48.810;12.352;2023-02-22T14:28:07;97065.50;;;15.77;49.45
74675;BME280;63200;48.810;12.352;2023-02-22T14:30:36;97063.97;;;15.59;49.48
74675;BME280;63200;48.810;12.352;2023-02-22T14:33:05;97066.09;;;15.36;50.10
74675;BME280;63200;48.810;12.352;2023-02-22T14:35:49;97022.81;;;14.73;50.75
74675;BME280;63200;48.810;12.352;2023-02-22T14:38:16;97070.53;;;14.84;51.13
74675;BME280;63200;48.810;12.352;2023-02-22T14:40:46;97067.16;;;14.70;51.65
74675;BME280;63200;48.810;12.352;2023-02-22T14:43:18;97062.63;;;14.47;52.49
74675;BME280;63200;48.810;12.352;2023-02-22T14:45:51;97052.03;;;14.72;51.72
74675;BME280;63200;48.810;12.352;2023-02-22T14:48:27;97064.25;;;14.75;51.93
74675;BME280;63200;48.810;12.352;2023-02-22T14:51:03;97051.25;;;14.72;51.87
74675;BME280;63200;48.810;12.352;2023-02-22T14:53:45;97042.06;;;14.59;52.45